sensor_id;sensor_type;location;lat;lon;timestamp;P1;durP1;ratioP1;P2;durP2;ratioP2
15716;SDS011;7960;50.908;4.204;2022-09-27T00:01:20;5.10;;;1.90;;
15716;SDS011;7960;50.908;4.204;2022-09-27T00:03:47;3.60;;;1.47;;
15716;SDS011;7960;50.908;4.204;2022-09-27T00:06:17;4.87;;;1.40;;
15716;SDS011;7960;50.908;4.204;2022-09-27T00:08:48;4.40;;;1.40;;
15716;SDS011;7960;50.908;4.204;2022-09-27T00:11:16;4.20;;;1.37;;
15716;SDS011;7960;50.908;4.204;2022-09-27T00:13:49;4.40;;;1.70;;
15716;SDS011;7960;50.908;4.204;2022-09-27T00:16:16;1.70;;;1.27;;
15716;SDS011;7960;50.908;4.204;2022-09-27T00:18:43;4.73;;;1.30;;
15716;SDS011;7960;50.908;4.204;2022-09-27T00:21:11;3.50;;;1.57;;
15716;SDS011;7960;50.908;4.204;2022-09-27T00:23:40;5.03;;;1.33;;
15716;SDS011;7960;50.908;4.204;2022-09-27T00:26:09;3.90;;;1.53;;
15716;SDS011;7960;50.908;4.204;2022-09-27T00:28:37;5.87;;;1.50;;
15716;SDS011;7960;50.908;4.204;2022-09-27T00:31:04;4.10;;;1.50;;
15716;SDS011;7960;50.908;4.204;2022-09-27T00:33:42;3.77;;;1.40;;
15716;SDS011;7960;50.908;4.204;2022-09-27T00:36:09;4.07;;;1.10;;
15716;SDS011;7960;50.908;4.204;2022-09-27T00:38:36;3.10;;;1.30;;
15716;SDS011;7960;50.908;4.204;2022-09-27T00:41:05;6.03;;;1.73;;
15716;SDS011;7960;50.908;4.204;2022-09-27T00:43:41;3.63;;;1.40;;
15716;SDS011;7960;50.908;4.204;2022-09-27T00:46:10;4.87;;;1.57;;
15716;SDS011;7960;50.908;4.204;2022-09-27T00:48:40;5.20;;;1.67;;
15716;SDS011;7960;50.908;4.204;2022-09-27T00:51:07;5.17;;;1.60;;
15716;SDS011;7960;50.908;4.204;2022-09-27T00:53:36;4.37;;;1.50;;
15716;SDS011;7960;50.908;4.204;2022-09-27T00:56:13;3.40;;;1.60;;
15716;SDS011;7960;50.908;4.204;2022-09-27T00:58:45;6.43;;;1.70;;
15716;SDS011;7960;50.908;4.204;2022-09-27T01:01:18;5.83;;;1.77;;
15716;SDS011;7960;50.908;4.204;2022-09-27T01:03:46;6.07;;;1.90;;
15716;SDS011;7960;50.908;4.204;2022-09-27T01:06:17;4.17;;;1.53;;
15716;SDS011;7960;50.908;4.204;2022-09-27T01:08:46;5.20;;;1.70;;
15716;SDS011;7960;50.908;4.204;2022-09-27T01:11:16;3.53;;;1.63;;
15716;SDS011;7960;50.908;4.204;2022-09-27T01:13:54;6.70;;;1.90;;
15716;SDS011;7960;50.908;4.204;2022-09-27T01:16:39;3.77;;;1.60;;
15716;SDS011;7960;50.908;4.204;2022-09-27T01:19:14;5.27;;;1.80;;
15716;SDS011;7960;50.908;4.204;2022-09-27T01:21:51;4.10;;;1.77;;
15716;SDS011;7960;50.908;4.204;2022-09-27T01:24:36;5.27;;;1.70;;
15716;SDS011;7960;50.908;4.204;2022-09-27T01:27:34;4.53;;;1.90;;
15716;SDS011;7960;50.908;4.204;2022-09-27T01:30:21;5.07;;;1.73;;
15716;SDS011;7960;50.908;4.204;2022-09-27T01:32:57;4.97;;;1.83;;
15716;SDS011;7960;50.908;4.204;2022-09-27T01:35:33;5.40;;;1.80;;
15716;SDS011;7960;50.908;4.204;2022-09-27T01:38:11;5.37;;;1.83;;
15716;SDS011;7960;50.908;4.204;2022-09-27T01:40:44;4.10;;;1.70;;
15716;SDS011;7960;50.908;4.204;2022-09-27T01:43:17;5.50;;;1.90;;
15716;SDS011;7960;50.908;4.204;2022-09-27T01:45:51;3.27;;;1.90;;
15716;SDS011;7960;50.908;4.204;2022-09-27T01:48:22;3.17;;;1.60;;
15716;SDS011;7960;50.908;4.204;2022-09-27T01:50:50;6.37;;;1.87;;
15716;SDS011;7960;50.908;4.204;2022-09-27T01:53:23;3.93;;;1.63;;
15716;SDS011;7960;50.908;4.204;2022-09-27T01:55:54;3.97;;;1.60;;
15716;SDS011;7960;50.908;4.204;2022-09-27T01:58:24;4.10;;;1.80;;
15716;SDS011;7960;50.908;4.204;2022-09-27T02:00:57;2.03;;;1.57;;
15716;SDS011;7960;50.908;4.204;2022-09-27T02:03:26;6.57;;;2.07;;
15716;SDS011;7960;50.908;4.204;2022-09-27T02:05:57;2.40;;;1.53;;
15716;SDS011;7960;50.908;4.204;2022-09-27T02:08:28;3.20;;;1.90;;
15716;SDS011;7960;50.908;4.204;2022-09-27T02:11:00;5.00;;;2.00;;
15716;SDS011;7960;50.908;4.204;2022-09-27T02:13:31;2.53;;;1.57;;
15716;SDS011;7960;50.908;4.204;2022-09-27T02:16:05;5.23;;;1.83;;
15716;SDS011;7960;50.908;4.204;2022-09-27T02:18:49;3.60;;;1.80;;
15716;SDS011;7960;50.908;4.204;2022-09-27T02:21:22;4.50;;;1.90;;
15716;SDS011;7960;50.908;4.204;2022-09-27T02:23:57;10.27;;;2.73;;
15716;SDS011;7960;50.908;4.204;2022-09-27T02:26:26;3.73;;;1.80;;
15716;SDS011;7960;50.908;4.204;2022-09-27T02:28:59;5.17;;;2.17;;
15716;SDS011;7960;50.908;4.204;2022-09-27T02:31:33;4.57;;;2.43;;
15716;SDS011;7960;50.908;4.204;2022-09-27T02:34:02;7.33;;;2.47;;
15716;SDS011;7960;50.908;4.204;2022-09-27T02:36:32;5.33;;;2.20;;
15716;SDS011;7960;50.908;4.204;2022-09-27T02:38:59;5.53;;;2.20;;
15716;SDS011;7960;50.908;4.204;2022-09-27T02:41:26;7.33;;;2.73;;
15716;SDS011;7960;50.908;4.204;2022-09-27T02:43:54;5.53;;;2.37;;
15716;SDS011;7960;50.908;4.204;2022-09-27T02:49:16;3.27;;;2.20;;
15716;SDS011;7960;50.908;4.204;2022-09-27T02:51:56;5.97;;;2.00;;
15716;SDS011;7960;50.908;4.204;2022-09-27T02:54:34;5.30;;;2.20;;
15716;SDS011;7960;50.908;4.204;2022-09-27T02:57:10;3.00;;;2.23;;
15716;SDS011;7960;50.908;4.204;2022-09-27T02:59:48;5.13;;;2.60;;
15716;SDS011;7960;50.908;4.204;2022-09-27T03:02:25;9.33;;;2.50;;
15716;SDS011;7960;50.908;4.204;2022-09-27T03:04:59;4.57;;;2.27;;
15716;SDS011;7960;50.908;4.204;2022-09-27T03:07:28;4.50;;;2.37;;
15716;SDS011;7960;50.908;4.204;2022-09-27T03:09:55;4.53;;;2.30;;
15716;SDS011;7960;50.908;4.204;2022-09-27T03:12:22;6.37;;;2.57;;
15716;SDS011;7960;50.908;4.204;2022-09-27T03:14:51;6.87;;;2.60;;
15716;SDS011;7960;50.908;4.204;2022-09-27T03:17:20;6.70;;;2.50;;
15716;SDS011;7960;50.908;4.204;2022-09-27T03:19:48;3.63;;;2.20;;
15716;SDS011;7960;50.908;4.204;2022-09-27T03:22:15;3.83;;;2.13;;
15716;SDS011;7960;50.908;4.204;2022-09-27T03:24:42;5.67;;;2.60;;
15716;SDS011;7960;50.908;4.204;2022-09-27T03:27:10;3.73;;;2.23;;
15716;SDS011;7960;50.908;4.204;2022-09-27T03:29:37;4.07;;;2.27;;
15716;SDS011;7960;50.908;4.204;2022-09-27T03:32:04;4.07;;;2.33;;
15716;SDS011;7960;50.908;4.204;2022-09-27T03:34:31;7.30;;;2.63;;
15716;SDS011;7960;50.908;4.204;2022-09-27T03:36:59;3.10;;;2.03;;
15716;SDS011;7960;50.908;4.204;2022-09-27T03:39:26;5.07;;;2.27;;
15716;SDS011;7960;50.908;4.204;2022-09-27T03:41:53;4.53;;;2.20;;
15716;SDS011;7960;50.908;4.204;2022-09-27T03:44:20;3.63;;;2.30;;
15716;SDS011;7960;50.908;4.204;2022-09-27T03:46:47;4.73;;;2.43;;
15716;SDS011;7960;50.908;4.204;2022-09-27T03:49:14;3.83;;;2.33;;
15716;SDS011;7960;50.908;4.204;2022-09-27T03:51:41;4.47;;;2.33;;
15716;SDS011;7960;50.908;4.204;2022-09-27T03:54:10;4.97;;;2.33;;
15716;SDS011;7960;50.908;4.204;2022-09-27T03:56:37;5.63;;;2.30;;
15716;SDS011;7960;50.908;4.204;2022-09-27T03:59:03;4.27;;;1.90;;
15716;SDS011;7960;50.908;4.204;2022-09-27T04:01:30;2.47;;;1.90;;
15716;SDS011;7960;50.908;4.204;2022-09-27T04:03:59;3.97;;;2.20;;
15716;SDS011;7960;50.908;4.204;2022-09-27T04:06:26;4.40;;;3.83;;
15716;SDS011;7960;50.908;4.204;2022-09-27T04:08:54;3.03;;;2.27;;
15716;SDS011;7960;50.908;4.204;2022-09-27T04:11:24;5.57;;;2.50;;
15716;SDS011;7960;50.908;4.204;2022-09-27T04:13:50;3.07;;;2.00;;
15716;SDS011;7960;50.908;4.204;2022-09-27T04:16:17;4.40;;;2.40;;
15716;SDS011;7960;50.908;4.204;2022-09-27T04:18:44;4.47;;;2.47;;
15716;SDS011;7960;50.908;4.204;2022-09-27T04:21:11;3.70;;;2.87;;
15716;SDS011;7960;50.908;4.204;2022-09-27T04:23:39;6.90;;;3.77;;
15716;SDS011;7960;50.908;4.204;2022-09-27T04:26:06;6.37;;;3.80;;
15716;SDS011;7960;50.908;4.204;2022-09-27T04:28:34;7.03;;;3.77;;
15716;SDS011;7960;50.908;4.204;2022-09-27T04:31:02;6.13;;;4.40;;
15716;SDS011;7960;50.908;4.204;2022-09-27T04:33:29;7.53;;;4.60;;
15716;SDS011;7960;50.908;4.204;2022-09-27T04:35:56;7.37;;;4.63;;
15716;SDS011;7960;50.908;4.204;2022-09-27T04:38:40;5.60;;;5.00;;
15716;SDS011;7960;50.908;4.204;2022-09-27T04:41:07;6.53;;;5.13;;
15716;SDS011;7960;50.908;4.204;2022-09-27T04:43:36;7.97;;;5.07;;
15716;SDS011;7960;50.908;4.204;2022-09-27T04:46:02;8.07;;;4.97;;
15716;SDS011;7960;50.908;4.204;2022-09-27T04:48:29;6.37;;;4.57;;
15716;SDS011;7960;50.908;4.204;2022-09-27T04:50:57;7.00;;;4.87;;
15716;SDS011;7960;50.908;4.204;2022-09-27T04:53:24;7.03;;;4.80;;
15716;SDS011;7960;50.908;4.204;2022-09-27T04:55:51;8.10;;;5.07;;
15716;SDS011;7960;50.908;4.204;2022-09-27T04:58:19;7.73;;;5.20;;
15716;SDS011;7960;50.908;4.204;2022-09-27T05:00:48;5.63;;;4.97;;
15716;SDS011;7960;50.908;4.204;2022-09-27T05:03:16;6.33;;;4.43;;
15716;SDS011;7960;50.908;4.204;2022-09-27T05:05:44;6.63;;;4.87;;
15716;SDS011;7960;50.908;4.204;2022-09-27T05:08:10;7.40;;;4.60;;
15716;SDS011;7960;50.908;4.204;2022-09-27T05:10:37;7.67;;;4.80;;
15716;SDS011;7960;50.908;4.204;2022-09-27T05:13:04;6.00;;;4.60;;
15716;SDS011;7960;50.908;4.204;2022-09-27T05:15:32;8.23;;;5.17;;
15716;SDS011;7960;50.908;4.204;2022-09-27T05:18:01;6.13;;;4.03;;
15716;SDS011;7960;50.908;4.204;2022-09-27T05:20:28;6.00;;;4.60;;
15716;SDS011;7960;50.908;4.204;2022-09-27T05:22:55;5.17;;;4.13;;
15716;SDS011;7960;50.908;4.204;2022-09-27T05:25:22;6.67;;;3.93;;
15716;SDS011;7960;50.908;4.204;2022-09-27T05:27:49;6.93;;;4.10;;
15716;SDS011;7960;50.908;4.204;2022-09-27T05:30:16;4.53;;;3.87;;
15716;SDS011;7960;50.908;4.204;2022-09-27T05:32:44;7.60;;;3.80;;
15716;SDS011;7960;50.908;4.204;2022-09-27T05:35:15;4.00;;;3.33;;
15716;SDS011;7960;50.908;4.204;2022-09-27T05:37:43;7.33;;;4.13;;
15716;SDS011;7960;50.908;4.204;2022-09-27T05:40:17;4.60;;;3.50;;
15716;SDS011;7960;50.908;4.204;2022-09-27T05:42:47;5.43;;;4.00;;
15716;SDS011;7960;50.908;4.204;2022-09-27T05:45:14;5.50;;;3.90;;
15716;SDS011;7960;50.908;4.204;2022-09-27T05:47:41;4.67;;;3.40;;
15716;SDS011;7960;50.908;4.204;2022-09-27T05:50:08;4.83;;;3.40;;
15716;SDS011;7960;50.908;4.204;2022-09-27T05:52:36;5.20;;;3.90;;
15716;SDS011;7960;50.908;4.204;2022-09-27T05:55:04;6.07;;;3.50;;
15716;SDS011;7960;50.908;4.204;2022-09-27T05:57:31;6.03;;;3.47;;
15716;SDS011;7960;50.908;4.204;2022-09-27T05:59:58;4.30;;;3.27;;
15716;SDS011;7960;50.908;4.204;2022-09-27T06:02:25;4.80;;;3.70;;
15716;SDS011;7960;50.908;4.204;2022-09-27T06:04:53;3.93;;;3.43;;
15716;SDS011;7960;50.908;4.204;2022-09-27T06:07:20;3.90;;;3.10;;
15716;SDS011;7960;50.908;4.204;2022-09-27T06:09:49;3.43;;;2.90;;
15716;SDS011;7960;50.908;4.204;2022-09-27T06:12:16;3.93;;;3.13;;
15716;SDS011;7960;50.908;4.204;2022-09-27T06:14:44;5.87;;;3.53;;
15716;SDS011;7960;50.908;4.204;2022-09-27T06:17:12;4.13;;;3.27;;
15716;SDS011;7960;50.908;4.204;2022-09-27T06:19:39;5.77;;;3.33;;
15716;SDS011;7960;50.908;4.204;2022-09-27T06:22:06;5.53;;;3.40;;
15716;SDS011;7960;50.908;4.204;2022-09-27T06:24:32;6.73;;;3.60;;
15716;SDS011;7960;50.908;4.204;2022-09-27T06:27:01;4.00;;;3.17;;
15716;SDS011;7960;50.908;4.204;2022-09-27T06:29:28;4.57;;;3.53;;
15716;SDS011;7960;50.908;4.204;2022-09-27T06:31:59;5.37;;;3.47;;
15716;SDS011;7960;50.908;4.204;2022-09-27T06:34:27;6.60;;;3.50;;
15716;SDS011;7960;50.908;4.204;2022-09-27T06:36:54;3.53;;;3.23;;
15716;SDS011;7960;50.908;4.204;2022-09-27T06:39:22;6.60;;;3.40;;
15716;SDS011;7960;50.908;4.204;2022-09-27T06:41:51;3.73;;;3.40;;
15716;SDS011;7960;50.908;4.204;2022-09-27T06:44:23;5.07;;;3.50;;
15716;SDS011;7960;50.908;4.204;2022-09-27T06:46:50;7.10;;;3.90;;
15716;SDS011;7960;50.908;4.204;2022-09-27T06:49:19;4.60;;;3.63;;
15716;SDS011;7960;50.908;4.204;2022-09-27T06:51:47;5.70;;;3.87;;
15716;SDS011;7960;50.908;4.204;2022-09-27T06:54:14;5.73;;;4.03;;
15716;SDS011;7960;50.908;4.204;2022-09-27T06:56:41;6.10;;;4.43;;
15716;SDS011;7960;50.908;4.204;2022-09-27T06:59:08;6.87;;;4.60;;
15716;SDS011;7960;50.908;4.204;2022-09-27T07:01:54;7.13;;;4.20;;
15716;SDS011;7960;50.908;4.204;2022-09-27T07:04:21;5.27;;;3.97;;
15716;SDS011;7960;50.908;4.204;2022-09-27T07:06:49;6.70;;;5.03;;
15716;SDS011;7960;50.908;4.204;2022-09-27T07:09:17;5.67;;;4.63;;
15716;SDS011;7960;50.908;4.204;2022-09-27T07:11:44;6.77;;;4.43;;
15716;SDS011;7960;50.908;4.204;2022-09-27T07:14:11;6.20;;;4.57;;
15716;SDS011;7960;50.908;4.204;2022-09-27T07:16:38;8.30;;;4.57;;
15716;SDS011;7960;50.908;4.204;2022-09-27T07:19:07;5.20;;;4.50;;
15716;SDS011;7960;50.908;4.204;2022-09-27T07:21:35;8.10;;;4.73;;
15716;SDS011;7960;50.908;4.204;2022-09-27T07:24:02;5.77;;;4.70;;
15716;SDS011;7960;50.908;4.204;2022-09-27T07:26:29;9.43;;;5.03;;
15716;SDS011;7960;50.908;4.204;2022-09-27T07:28:56;7.47;;;5.03;;
15716;SDS011;7960;50.908;4.204;2022-09-27T07:31:23;7.23;;;5.07;;
15716;SDS011;7960;50.908;4.204;2022-09-27T07:33:50;6.67;;;4.83;;
15716;SDS011;7960;50.908;4.204;2022-09-27T07:36:19;6.63;;;4.43;;
15716;SDS011;7960;50.908;4.204;2022-09-27T07:38:46;5.50;;;4.47;;
15716;SDS011;7960;50.908;4.204;2022-09-27T07:41:13;5.83;;;4.40;;
15716;SDS011;7960;50.908;4.204;2022-09-27T07:43:41;7.83;;;4.40;;
15716;SDS011;7960;50.908;4.204;2022-09-27T07:46:09;6.33;;;4.03;;
15716;SDS011;7960;50.908;4.204;2022-09-27T07:48:37;5.83;;;4.40;;
15716;SDS011;7960;50.908;4.204;2022-09-27T07:51:05;4.83;;;3.50;;
15716;SDS011;7960;50.908;4.204;2022-09-27T07:53:36;5.17;;;3.73;;
15716;SDS011;7960;50.908;4.204;2022-09-27T07:56:03;5.87;;;4.03;;
15716;SDS011;7960;50.908;4.204;2022-09-27T07:58:30;5.20;;;4.13;;
15716;SDS011;7960;50.908;4.204;2022-09-27T08:00:58;4.63;;;3.60;;
15716;SDS011;7960;50.908;4.204;2022-09-27T08:03:26;3.87;;;3.33;;
15716;SDS011;7960;50.908;4.204;2022-09-27T08:05:53;5.77;;;3.43;;
15716;SDS011;7960;50.908;4.204;2022-09-27T08:08:20;5.27;;;3.33;;
15716;SDS011;7960;50.908;4.204;2022-09-27T08:10:49;5.47;;;3.40;;
15716;SDS011;7960;50.908;4.204;2022-09-27T08:13:16;5.57;;;3.27;;
15716;SDS011;7960;50.908;4.204;2022-09-27T08:15:44;5.70;;;3.50;;
15716;SDS011;7960;50.908;4.204;2022-09-27T08:18:12;4.27;;;3.27;;
15716;SDS011;7960;50.908;4.204;2022-09-27T08:20:39;4.37;;;3.50;;
15716;SDS011;7960;50.908;4.204;2022-09-27T08:23:06;5.10;;;3.50;;
15716;SDS011;7960;50.908;4.204;2022-09-27T08:25:33;5.60;;;3.23;;
15716;SDS011;7960;50.908;4.204;2022-09-27T08:28:02;5.00;;;3.30;;
15716;SDS011;7960;50.908;4.204;2022-09-27T08:30:30;5.93;;;3.07;;
15716;SDS011;7960;50.908;4.204;2022-09-27T08:32:58;3.53;;;3.13;;
15716;SDS011;7960;50.908;4.204;2022-09-27T08:35:27;4.60;;;2.90;;
15716;SDS011;7960;50.908;4.204;2022-09-27T08:37:54;4.57;;;2.83;;
15716;SDS011;7960;50.908;4.204;2022-09-27T08:40:24;5.20;;;3.00;;
15716;SDS011;7960;50.908;4.204;2022-09-27T08:42:59;3.67;;;2.90;;
15716;SDS011;7960;50.908;4.204;2022-09-27T08:45:31;8.47;;;3.20;;
15716;SDS011;7960;50.908;4.204;2022-09-27T08:48:03;3.53;;;2.90;;
15716;SDS011;7960;50.908;4.204;2022-09-27T08:50:32;4.77;;;3.20;;
15716;SDS011;7960;50.908;4.204;2022-09-27T08:53:01;3.93;;;3.23;;
15716;SDS011;7960;50.908;4.204;2022-09-27T08:55:34;5.27;;;2.90;;
15716;SDS011;7960;50.908;4.204;2022-09-27T08:58:08;4.47;;;2.87;;
15716;SDS011;7960;50.908;4.204;2022-09-27T09:00:40;3.63;;;2.50;;
15716;SDS011;7960;50.908;4.204;2022-09-27T09:03:08;5.07;;;2.83;;
15716;SDS011;7960;50.908;4.204;2022-09-27T09:05:45;3.27;;;2.63;;
15716;SDS011;7960;50.908;4.204;2022-09-27T09:08:20;6.03;;;2.57;;
15716;SDS011;7960;50.908;4.204;2022-09-27T09:10:54;4.17;;;3.00;;
15716;SDS011;7960;50.908;4.204;2022-09-27T09:13:50;4.43;;;2.33;;
15716;SDS011;7960;50.908;4.204;2022-09-27T09:16:49;2.73;;;2.40;;
15716;SDS011;7960;50.908;4.204;2022-09-27T09:19:29;3.83;;;2.47;;
15716;SDS011;7960;50.908;4.204;2022-09-27T09:22:08;6.43;;;2.87;;
15716;SDS011;7960;50.908;4.204;2022-09-27T09:24:58;3.00;;;2.40;;
15716;SDS011;7960;50.908;4.204;2022-09-27T09:27:34;6.27;;;2.70;;
15716;SDS011;7960;50.908;4.204;2022-09-27T09:30:17;4.63;;;2.87;;
15716;SDS011;7960;50.908;4.204;2022-09-27T09:32:49;6.10;;;2.70;;
15716;SDS011;7960;50.908;4.204;2022-09-27T09:35:30;2.97;;;2.20;;
15716;SDS011;7960;50.908;4.204;2022-09-27T09:38:02;5.57;;;3.23;;
15716;SDS011;7960;50.908;4.204;2022-09-27T09:40:33;5.67;;;2.87;;
15716;SDS011;7960;50.908;4.204;2022-09-27T09:43:08;7.27;;;3.23;;
15716;SDS011;7960;50.908;4.204;2022-09-27T09:45:43;6.63;;;4.43;;
15716;SDS011;7960;50.908;4.204;2022-09-27T09:48:15;10.03;;;5.30;;
15716;SDS011;7960;50.908;4.204;2022-09-27T09:50:47;6.23;;;2.97;;
15716;SDS011;7960;50.908;4.204;2022-09-27T09:53:18;5.63;;;3.00;;
15716;SDS011;7960;50.908;4.204;2022-09-27T09:55:50;5.10;;;3.73;;
15716;SDS011;7960;50.908;4.204;2022-09-27T09:58:22;6.07;;;3.20;;
15716;SDS011;7960;50.908;4.204;2022-09-27T10:00:57;8.07;;;3.73;;
15716;SDS011;7960;50.908;4.204;2022-09-27T10:03:33;7.23;;;2.83;;
15716;SDS011;7960;50.908;4.204;2022-09-27T10:06:00;7.70;;;3.50;;
15716;SDS011;7960;50.908;4.204;2022-09-27T10:08:27;6.97;;;2.83;;
15716;SDS011;7960;50.908;4.204;2022-09-27T10:10:54;4.83;;;3.00;;
15716;SDS011;7960;50.908;4.204;2022-09-27T10:13:21;7.37;;;2.97;;
15716;SDS011;7960;50.908;4.204;2022-09-27T10:15:49;4.17;;;2.83;;
15716;SDS011;7960;50.908;4.204;2022-09-27T10:18:23;6.30;;;3.20;;
15716;SDS011;7960;50.908;4.204;2022-09-27T10:20:54;8.57;;;2.90;;
15716;SDS011;7960;50.908;4.204;2022-09-27T10:23:24;7.20;;;3.27;;
15716;SDS011;7960;50.908;4.204;2022-09-27T10:25:51;5.77;;;3.37;;
15716;SDS011;7960;50.908;4.204;2022-09-27T10:28:28;8.23;;;3.30;;
15716;SDS011;7960;50.908;4.204;2022-09-27T10:30:58;7.00;;;3.30;;
15716;SDS011;7960;50.908;4.204;2022-09-27T10:33:29;6.07;;;3.00;;
15716;SDS011;7960;50.908;4.204;2022-09-27T10:35:59;4.70;;;3.10;;
15716;SDS011;7960;50.908;4.204;2022-09-27T10:38:28;7.93;;;3.20;;
15716;SDS011;7960;50.908;4.204;2022-09-27T10:40:58;6.23;;;3.30;;
15716;SDS011;7960;50.908;4.204;2022-09-27T10:43:42;8.33;;;3.57;;
15716;SDS011;7960;50.908;4.204;2022-09-27T10:46:11;7.90;;;3.73;;
15716;SDS011;7960;50.908;4.204;2022-09-27T10:48:43;8.03;;;3.60;;
15716;SDS011;7960;50.908;4.204;2022-09-27T10:51:24;9.60;;;4.20;;
15716;SDS011;7960;50.908;4.204;2022-09-27T10:53:54;5.97;;;3.70;;
15716;SDS011;7960;50.908;4.204;2022-09-27T10:56:25;3.83;;;2.57;;
15716;SDS011;7960;50.908;4.204;2022-09-27T10:58:55;6.47;;;2.77;;
15716;SDS011;7960;50.908;4.204;2022-09-27T11:01:24;4.13;;;2.30;;
15716;SDS011;7960;50.908;4.204;2022-09-27T11:03:53;4.03;;;1.77;;
15716;SDS011;7960;50.908;4.204;2022-09-27T11:06:27;3.53;;;1.37;;
15716;SDS011;7960;50.908;4.204;2022-09-27T11:09:07;6.43;;;2.23;;
15716;SDS011;7960;50.908;4.204;2022-09-27T11:11:40;6.37;;;1.80;;
15716;SDS011;7960;50.908;4.204;2022-09-27T11:14:16;3.67;;;1.40;;
15716;SDS011;7960;50.908;4.204;2022-09-27T11:16:47;2.17;;;1.33;;
15716;SDS011;7960;50.908;4.204;2022-09-27T11:19:37;5.13;;;1.50;;
15716;SDS011;7960;50.908;4.204;2022-09-27T11:22:19;1.50;;;1.33;;
15716;SDS011;7960;50.908;4.204;2022-09-27T11:25:04;2.53;;;1.43;;
15716;SDS011;7960;50.908;4.204;2022-09-27T11:27:41;5.23;;;1.80;;
15716;SDS011;7960;50.908;4.204;2022-09-27T11:30:20;7.40;;;1.70;;
15716;SDS011;7960;50.908;4.204;2022-09-27T11:32:59;3.27;;;1.30;;
15716;SDS011;7960;50.908;4.204;2022-09-27T11:35:46;2.17;;;1.50;;
15716;SDS011;7960;50.908;4.204;2022-09-27T11:38:24;4.03;;;1.70;;
15716;SDS011;7960;50.908;4.204;2022-09-27T11:41:00;4.10;;;1.90;;
15716;SDS011;7960;50.908;4.204;2022-09-27T11:43:39;4.03;;;1.60;;
15716;SDS011;7960;50.908;4.204;2022-09-27T11:46:29;4.20;;;1.70;;
15716;SDS011;7960;50.908;4.204;2022-09-27T11:49:05;3.13;;;1.80;;
15716;SDS011;7960;50.908;4.204;2022-09-27T11:51:48;2.77;;;1.83;;
15716;SDS011;7960;50.908;4.204;2022-09-27T11:54:29;2.40;;;1.67;;
15716;SDS011;7960;50.908;4.204;2022-09-27T11:57:09;2.33;;;1.80;;
15716;SDS011;7960;50.908;4.204;2022-09-27T11:59:50;3.37;;;1.60;;
15716;SDS011;7960;50.908;4.204;2022-09-27T12:05:56;4.37;;;1.97;;
15716;SDS011;7960;50.908;4.204;2022-09-27T12:08:38;5.30;;;1.90;;
15716;SDS011;7960;50.908;4.204;2022-09-27T12:11:15;7.23;;;2.10;;
15716;SDS011;7960;50.908;4.204;2022-09-27T12:13:47;5.83;;;1.70;;
15716;SDS011;7960;50.908;4.204;2022-09-27T12:16:16;3.50;;;1.87;;
15716;SDS011;7960;50.908;4.204;2022-09-27T12:18:46;2.40;;;1.53;;
15716;SDS011;7960;50.908;4.204;2022-09-27T12:21:15;5.20;;;2.23;;
15716;SDS011;7960;50.908;4.204;2022-09-27T12:23:46;3.67;;;1.70;;
15716;SDS011;7960;50.908;4.204;2022-09-27T12:26:16;6.93;;;2.27;;
15716;SDS011;7960;50.908;4.204;2022-09-27T12:28:47;5.70;;;1.80;;
15716;SDS011;7960;50.908;4.204;2022-09-27T12:31:19;3.43;;;1.70;;
15716;SDS011;7960;50.908;4.204;2022-09-27T12:33:51;5.80;;;2.10;;
15716;SDS011;7960;50.908;4.204;2022-09-27T12:36:27;6.53;;;2.47;;
15716;SDS011;7960;50.908;4.204;2022-09-27T12:39:02;5.47;;;2.10;;
15716;SDS011;7960;50.908;4.204;2022-09-27T12:41:37;5.57;;;2.20;;
15716;SDS011;7960;50.908;4.204;2022-09-27T12:44:09;3.40;;;1.80;;
15716;SDS011;7960;50.908;4.204;2022-09-27T12:46:42;3.47;;;1.50;;
15716;SDS011;7960;50.908;4.204;2022-09-27T12:49:19;3.30;;;1.50;;
15716;SDS011;7960;50.908;4.204;2022-09-27T12:51:55;3.53;;;1.70;;
15716;SDS011;7960;50.908;4.204;2022-09-27T12:54:30;3.77;;;1.40;;
15716;SDS011;7960;50.908;4.204;2022-09-27T12:57:12;2.77;;;1.30;;
15716;SDS011;7960;50.908;4.204;2022-09-27T13:00:00;4.97;;;2.70;;
15716;SDS011;7960;50.908;4.204;2022-09-27T13:05:43;3.40;;;1.30;;
15716;SDS011;7960;50.908;4.204;2022-09-27T13:08:52;3.87;;;1.60;;
15716;SDS011;7960;50.908;4.204;2022-09-27T13:11:49;4.30;;;1.20;;
15716;SDS011;7960;50.908;4.204;2022-09-27T13:14:23;3.77;;;1.90;;
15716;SDS011;7960;50.908;4.204;2022-09-27T13:16:51;10.00;;;2.33;;
15716;SDS011;7960;50.908;4.204;2022-09-27T13:19:36;3.40;;;1.37;;
15716;SDS011;7960;50.908;4.204;2022-09-27T13:22:10;4.70;;;1.60;;
15716;SDS011;7960;50.908;4.204;2022-09-27T13:28:07;5.30;;;1.67;;
15716;SDS011;7960;50.908;4.204;2022-09-27T13:30:58;4.00;;;1.50;;
15716;SDS011;7960;50.908;4.204;2022-09-27T13:36:26;6.03;;;2.00;;
15716;SDS011;7960;50.908;4.204;2022-09-27T13:38:59;4.67;;;1.50;;
15716;SDS011;7960;50.908;4.204;2022-09-27T13:41:51;4.93;;;1.63;;
15716;SDS011;7960;50.908;4.204;2022-09-27T13:44:31;6.50;;;1.73;;
15716;SDS011;7960;50.908;4.204;2022-09-27T13:47:12;3.80;;;1.70;;
15716;SDS011;7960;50.908;4.204;2022-09-27T13:49:51;5.07;;;2.00;;
15716;SDS011;7960;50.908;4.204;2022-09-27T13:52:20;4.13;;;1.90;;
15716;SDS011;7960;50.908;4.204;2022-09-27T13:54:54;6.10;;;2.27;;
15716;SDS011;7960;50.908;4.204;2022-09-27T13:57:40;6.90;;;2.33;;
15716;SDS011;7960;50.908;4.204;2022-09-27T14:00:12;6.87;;;2.30;;
15716;SDS011;7960;50.908;4.204;2022-09-27T14:02:44;4.10;;;1.93;;
15716;SDS011;7960;50.908;4.204;2022-09-27T14:05:20;11.17;;;2.30;;
15716;SDS011;7960;50.908;4.204;2022-09-27T14:07:51;6.47;;;2.50;;
15716;SDS011;7960;50.908;4.204;2022-09-27T14:10:20;7.00;;;2.03;;
15716;SDS011;7960;50.908;4.204;2022-09-27T14:12:49;4.60;;;2.17;;
15716;SDS011;7960;50.908;4.204;2022-09-27T14:15:19;4.00;;;2.40;;
15716;SDS011;7960;50.908;4.204;2022-09-27T14:17:49;5.17;;;2.37;;
15716;SDS011;7960;50.908;4.204;2022-09-27T14:20:33;5.00;;;2.20;;
15716;SDS011;7960;50.908;4.204;2022-09-27T14:23:02;3.00;;;1.90;;
15716;SDS011;7960;50.908;4.204;2022-09-27T14:25:30;6.03;;;2.17;;
15716;SDS011;7960;50.908;4.204;2022-09-27T14:27:57;4.50;;;2.27;;
15716;SDS011;7960;50.908;4.204;2022-09-27T14:30:27;6.57;;;2.23;;
15716;SDS011;7960;50.908;4.204;2022-09-27T14:32:55;8.17;;;2.40;;
15716;SDS011;7960;50.908;4.204;2022-09-27T14:35:25;9.27;;;2.67;;
15716;SDS011;7960;50.908;4.204;2022-09-27T14:38:11;7.77;;;3.03;;
15716;SDS011;7960;50.908;4.204;2022-09-27T14:40:41;7.60;;;3.10;;
15716;SDS011;7960;50.908;4.204;2022-09-27T14:43:12;10.03;;;2.90;;
15716;SDS011;7960;50.908;4.204;2022-09-27T14:45:43;5.83;;;3.10;;
15716;SDS011;7960;50.908;4.204;2022-09-27T14:48:19;4.30;;;2.20;;
15716;SDS011;7960;50.908;4.204;2022-09-27T14:50:52;4.63;;;1.90;;
15716;SDS011;7960;50.908;4.204;2022-09-27T14:53:25;2.13;;;1.70;;
15716;SDS011;7960;50.908;4.204;2022-09-27T14:55:53;2.67;;;1.73;;
15716;SDS011;7960;50.908;4.204;2022-09-27T14:58:21;5.83;;;2.33;;
15716;SDS011;7960;50.908;4.204;2022-09-27T15:00:51;3.83;;;1.70;;
15716;SDS011;7960;50.908;4.204;2022-09-27T15:03:20;2.63;;;2.00;;
15716;SDS011;7960;50.908;4.204;2022-09-27T15:05:54;4.37;;;2.20;;
15716;SDS011;7960;50.908;4.204;2022-09-27T15:08:23;3.50;;;1.90;;
15716;SDS011;7960;50.908;4.204;2022-09-27T15:10:54;3.67;;;1.90;;
15716;SDS011;7960;50.908;4.204;2022-09-27T15:13:22;2.40;;;2.03;;
15716;SDS011;7960;50.908;4.204;2022-09-27T15:15:52;4.73;;;2.00;;
15716;SDS011;7960;50.908;4.204;2022-09-27T15:18:31;4.17;;;2.27;;
15716;SDS011;7960;50.908;4.204;2022-09-27T15:20:59;3.10;;;2.43;;
15716;SDS011;7960;50.908;4.204;2022-09-27T15:23:27;3.37;;;1.83;;
15716;SDS011;7960;50.908;4.204;2022-09-27T15:25:57;2.27;;;1.70;;
15716;SDS011;7960;50.908;4.204;2022-09-27T15:28:28;4.73;;;2.60;;
15716;SDS011;7960;50.908;4.204;2022-09-27T15:30:56;3.43;;;2.10;;
15716;SDS011;7960;50.908;4.204;2022-09-27T15:33:24;4.60;;;2.40;;
15716;SDS011;7960;50.908;4.204;2022-09-27T15:35:54;2.53;;;2.10;;
15716;SDS011;7960;50.908;4.204;2022-09-27T15:38:24;8.30;;;4.50;;
15716;SDS011;7960;50.908;4.204;2022-09-27T15:40:56;5.57;;;2.90;;
15716;SDS011;7960;50.908;4.204;2022-09-27T15:43:35;5.03;;;2.47;;